sensor_id;sensor_type;location;lat;lon;timestamp;temperature;humidity
14924;DHT22;7554;43.600;1.480;2023-02-08T00:21:42;4.80;1.00
14924;DHT22;7554;43.600;1.480;2023-02-08T00:24:10;4.80;1.00
14924;DHT22;7554;43.600;1.480;2023-02-08T00:26:37;4.80;1.00
14924;DHT22;7554;43.600;1.480;2023-02-08T00:29:04;4.80;1.00
14924;DHT22;7554;43.600;1.480;2023-02-08T00:31:32;4.80;1.00
14924;DHT22;7554;43.600;1.480;2023-02-08T00:33:59;4.70;1.00
14924;DHT22;7554;43.600;1.480;2023-02-08T00:36:27;4.80;1.00
14924;DHT22;7554;43.600;1.480;2023-02-08T00:38:55;4.70;1.00
14924;DHT22;7554;43.600;1.480;2023-02-08T00:41:23;4.70;1.00
14924;DHT22;7554;43.600;1.480;2023-02-08T00:43:50;4.70;1.00
14924;DHT22;7554;43.600;1.480;2023-02-08T00:46:18;4.60;1.00
14924;DHT22;7554;43.600;1.480;2023-02-08T00:48:46;4.60;1.00
14924;DHT22;7554;43.600;1.480;2023-02-08T00:51:14;4.50;1.00
14924;DHT22;7554;43.600;1.480;2023-02-08T00:53:43;4.60;1.00
14924;DHT22;7554;43.600;1.480;2023-02-08T00:56:13;4.60;1.00
14924;DHT22;7554;43.600;1.480;2023-02-08T00:58:42;4.60;1.00
14924;DHT22;7554;43.600;1.480;2023-02-08T01:01:09;4.60;1.00
14924;DHT22;7554;43.600;1.480;2023-02-08T01:03:38;4.60;1.00
14924;DHT22;7554;43.600;1.480;2023-02-08T01:06:07;4.60;1.00
14924;DHT22;7554;43.600;1.480;2023-02-08T01:08:35;4.50;1.00
14924;DHT22;7554;43.600;1.480;2023-02-08T01:11:04;4.50;1.00
14924;DHT22;7554;43.600;1.480;2023-02-08T01:13:33;4.50;1.00
14924;DHT22;7554;43.600;1.480;2023-02-08T01:16:09;4.40;1.00
14924;DHT22;7554;43.600;1.480;2023-02-08T01:18:38;4.30;1.00
14924;DHT22;7554;43.600;1.480;2023-02-08T01:21:06;4.30;1.00
14924;DHT22;7554;43.600;1.480;2023-02-08T01:23:35;4.10;1.00
14924;DHT22;7554;43.600;1.480;2023-02-08T01:26:03;4.10;1.00
14924;DHT22;7554;43.600;1.480;2023-02-08T01:28:31;4.10;1.00
14924;DHT22;7554;43.600;1.480;2023-02-08T01:31:06;4.10;1.00
14924;DHT22;7554;43.600;1.480;2023-02-08T01:33:34;4.10;1.00
14924;DHT22;7554;43.600;1.480;2023-02-08T01:36:02;4.00;1.00
14924;DHT22;7554;43.600;1.480;2023-02-08T01:38:30;4.00;1.00
14924;DHT22;7554;43.600;1.480;2023-02-08T01:40:57;4.00;1.00
14924;DHT22;7554;43.600;1.480;2023-02-08T01:43:27;4.10;1.00
14924;DHT22;7554;43.600;1.480;2023-02-08T01:45:55;4.10;1.00
14924;DHT22;7554;43.600;1.480;2023-02-08T01:48:34;4.10;1.00
14924;DHT22;7554;43.600;1.480;2023-02-08T01:51:06;4.10;1.00
14924;DHT22;7554;43.600;1.480;2023-02-08T01:53:36;4.00;1.00
14924;DHT22;7554;43.600;1.480;2023-02-08T01:56:07;4.10;1.00
14924;DHT22;7554;43.600;1.480;2023-02-08T01:58:44;4.10;1.00
14924;DHT22;7554;43.600;1.480;2023-02-08T02:01:12;4.10;1.00
14924;DHT22;7554;43.600;1.480;2023-02-08T02:03:42;4.10;1.00
14924;DHT22;7554;43.600;1.480;2023-02-08T02:06:11;4.00;1.00
14924;DHT22;7554;43.600;1.480;2023-02-08T02:08:44;4.10;1.00
14924;DHT22;7554;43.600;1.480;2023-02-08T02:11:13;4.00;1.00
14924;DHT22;7554;43.600;1.480;2023-02-08T02:13:41;4.00;1.00
14924;DHT22;7554;43.600;1.480;2023-02-08T02:16:09;4.00;1.00
14924;DHT22;7554;43.600;1.480;2023-02-08T02:18:37;4.00;1.00
14924;DHT22;7554;43.600;1.480;2023-02-08T02:21:22;4.00;1.00
14924;DHT22;7554;43.600;1.480;2023-02-08T02:24:20;4.00;1.00
14924;DHT22;7554;43.600;1.480;2023-02-08T02:33:20;3.90;1.00
14924;DHT22;7554;43.600;1.480;2023-02-08T02:35:56;3.90;1.00
14924;DHT22;7554;43.600;1.480;2023-02-08T02:38:33;3.90;1.00
14924;DHT22;7554;43.600;1.480;2023-02-08T02:41:12;3.90;1.00
14924;DHT22;7554;43.600;1.480;2023-02-08T02:44:11;3.90;1.00
14924;DHT22;7554;43.600;1.480;2023-02-08T02:46:42;3.90;1.00
14924;DHT22;7554;43.600;1.480;2023-02-08T02:49:16;3.90;1.00
14924;DHT22;7554;43.600;1.480;2023-02-08T02:51:49;4.00;1.00
14924;DHT22;7554;43.600;1.480;2023-02-08T02:54:21;3.90;1.00
14924;DHT22;7554;43.600;1.480;2023-02-08T02:56:52;3.80;1.00
14924;DHT22;7554;43.600;1.480;2023-02-08T02:59:22;3.80;1.00
14924;DHT22;7554;43.600;1.480;2023-02-08T03:01:53;3.70;1.00
14924;DHT22;7554;43.600;1.480;2023-02-08T03:04:50;3.60;1.00
14924;DHT22;7554;43.600;1.480;2023-02-08T03:10:28;3.50;1.00
14924;DHT22;7554;43.600;1.480;2023-02-08T03:13:04;3.50;1.00
14924;DHT22;7554;43.600;1.480;2023-02-08T03:15:42;3.60;1.00
14924;DHT22;7554;43.600;1.480;2023-02-08T03:18:23;3.70;1.00
14924;DHT22;7554;43.600;1.480;2023-02-08T03:21:01;3.70;1.00
14924;DHT22;7554;43.600;1.480;2023-02-08T03:23:39;3.60;1.00
14924;DHT22;7554;43.600;1.480;2023-02-08T03:26:12;3.70;1.00
14924;DHT22;7554;43.600;1.480;2023-02-08T03:28:47;3.60;1.00
14924;DHT22;7554;43.600;1.480;2023-02-08T03:31:25;3.60;1.00
14924;DHT22;7554;43.600;1.480;2023-02-08T03:33:57;3.50;1.00
14924;DHT22;7554;43.600;1.480;2023-02-08T03:36:32;3.50;1.00
14924;DHT22;7554;43.600;1.480;2023-02-08T03:39:03;3.40;1.00
14924;DHT22;7554;43.600;1.480;2023-02-08T03:41:35;3.30;1.00
14924;DHT22;7554;43.600;1.480;2023-02-08T03:44:08;3.40;1.00
14924;DHT22;7554;43.600;1.480;2023-02-08T03:46:38;3.50;1.00
14924;DHT22;7554;43.600;1.480;2023-02-08T03:49:10;3.50;1.00
14924;DHT22;7554;43.600;1.480;2023-02-08T03:51:40;3.50;1.00
14924;DHT22;7554;43.600;1.480;2023-02-08T03:54:13;3.50;1.00
14924;DHT22;7554;43.600;1.480;2023-02-08T03:56:45;3.50;1.00
14924;DHT22;7554;43.600;1.480;2023-02-08T03:59:17;3.40;1.00
14924;DHT22;7554;43.600;1.480;2023-02-08T04:01:50;3.40;1.00
14924;DHT22;7554;43.600;1.480;2023-02-08T04:04:20;3.30;1.00
14924;DHT22;7554;43.600;1.480;2023-02-08T04:06:49;3.30;1.00
14924;DHT22;7554;43.600;1.480;2023-02-08T04:09:16;3.40;1.00
14924;DHT22;7554;43.600;1.480;2023-02-08T04:11:44;3.30;1.00
14924;DHT22;7554;43.600;1.480;2023-02-08T04:14:11;3.30;1.00
14924;DHT22;7554;43.600;1.480;2023-02-08T04:16:38;3.40;1.00
14924;DHT22;7554;43.600;1.480;2023-02-08T04:19:06;3.30;1.00
14924;DHT22;7554;43.600;1.480;2023-02-08T04:21:33;3.30;1.00
14924;DHT22;7554;43.600;1.480;2023-02-08T04:24:02;3.30;1.00
14924;DHT22;7554;43.600;1.480;2023-02-08T04:26:29;3.20;1.00
14924;DHT22;7554;43.600;1.480;2023-02-08T04:28:57;3.30;1.00
14924;DHT22;7554;43.600;1.480;2023-02-08T04:31:24;3.20;1.00
14924;DHT22;7554;43.600;1.480;2023-02-08T04:33:52;3.20;1.00
14924;DHT22;7554;43.600;1.480;2023-02-08T04:36:19;3.10;1.00
14924;DHT22;7554;43.600;1.480;2023-02-08T04:38:46;3.10;1.00
14924;DHT22;7554;43.600;1.480;2023-02-08T04:41:15;3.10;1.00
14924;DHT22;7554;43.600;1.480;2023-02-08T04:43:43;3.10;1.00
14924;DHT22;7554;43.600;1.480;2023-02-08T04:46:10;3.10;1.00
14924;DHT22;7554;43.600;1.480;2023-02-08T04:48:38;3.10;1.00
14924;DHT22;7554;43.600;1.480;2023-02-08T04:51:05;3.10;1.00
14924;DHT22;7554;43.600;1.480;2023-02-08T04:53:32;3.00;1.00
14924;DHT22;7554;43.600;1.480;2023-02-08T04:56:00;3.00;1.00
14924;DHT22;7554;43.600;1.480;2023-02-08T04:58:29;3.00;1.00
14924;DHT22;7554;43.600;1.480;2023-02-08T05:00:56;3.00;1.00
14924;DHT22;7554;43.600;1.480;2023-02-08T05:03:24;3.00;1.00
14924;DHT22;7554;43.600;1.480;2023-02-08T05:05:56;3.00;1.00
14924;DHT22;7554;43.600;1.480;2023-02-08T05:08:24;3.00;1.00
14924;DHT22;7554;43.600;1.480;2023-02-08T05:10:51;3.00;1.00
14924;DHT22;7554;43.600;1.480;2023-02-08T05:13:19;3.00;1.00
14924;DHT22;7554;43.600;1.480;2023-02-08T05:15:48;3.00;1.00
14924;DHT22;7554;43.600;1.480;2023-02-08T05:18:15;3.00;1.00
14924;DHT22;7554;43.600;1.480;2023-02-08T05:20:42;2.90;1.00
14924;DHT22;7554;43.600;1.480;2023-02-08T05:23:10;2.90;1.00
14924;DHT22;7554;43.600;1.480;2023-02-08T05:25:38;2.90;1.00
14924;DHT22;7554;43.600;1.480;2023-02-08T05:28:06;3.00;1.00
14924;DHT22;7554;43.600;1.480;2023-02-08T05:30:34;2.90;1.00
14924;DHT22;7554;43.600;1.480;2023-02-08T05:33:03;2.90;1.00
14924;DHT22;7554;43.600;1.480;2023-02-08T05:35:30;2.80;1.00
14924;DHT22;7554;43.600;1.480;2023-02-08T05:37:57;2.70;1.00
14924;DHT22;7554;43.600;1.480;2023-02-08T05:40:25;2.70;1.00
14924;DHT22;7554;43.600;1.480;2023-02-08T05:42:52;2.80;1.00
14924;DHT22;7554;43.600;1.480;2023-02-08T05:45:19;2.80;1.00
14924;DHT22;7554;43.600;1.480;2023-02-08T05:47:47;2.80;1.00
14924;DHT22;7554;43.600;1.480;2023-02-08T05:50:16;2.80;1.00
14924;DHT22;7554;43.600;1.480;2023-02-08T05:52:43;2.70;1.00
14924;DHT22;7554;43.600;1.480;2023-02-08T05:55:11;2.70;1.00
14924;DHT22;7554;43.600;1.480;2023-02-08T05:57:38;2.70;1.00
14924;DHT22;7554;43.600;1.480;2023-02-08T06:00:06;2.70;1.00
14924;DHT22;7554;43.600;1.480;2023-02-08T06:02:34;2.70;1.00
14924;DHT22;7554;43.600;1.480;2023-02-08T06:05:02;2.60;1.00
14924;DHT22;7554;43.600;1.480;2023-02-08T06:07:31;2.60;1.00
14924;DHT22;7554;43.600;1.480;2023-02-08T06:09:58;2.50;1.00
14924;DHT22;7554;43.600;1.480;2023-02-08T06:12:26;2.40;1.00
14924;DHT22;7554;43.600;1.480;2023-02-08T06:14:53;2.40;1.00
14924;DHT22;7554;43.600;1.480;2023-02-08T06:17:21;2.40;1.00
14924;DHT22;7554;43.600;1.480;2023-02-08T06:19:48;2.30;1.00
14924;DHT22;7554;43.600;1.480;2023-02-08T06:22:16;2.30;1.00
14924;DHT22;7554;43.600;1.480;2023-02-08T06:24:44;2.30;1.00
14924;DHT22;7554;43.600;1.480;2023-02-08T06:27:13;2.30;1.00
14924;DHT22;7554;43.600;1.480;2023-02-08T06:29:40;2.20;1.00
14924;DHT22;7554;43.600;1.480;2023-02-08T06:32:08;2.20;1.00
14924;DHT22;7554;43.600;1.480;2023-02-08T06:34:36;2.20;1.00
14924;DHT22;7554;43.600;1.480;2023-02-08T06:37:03;2.20;1.00
14924;DHT22;7554;43.600;1.480;2023-02-08T06:39:30;2.20;1.00
14924;DHT22;7554;43.600;1.480;2023-02-08T06:41:59;2.10;1.00
14924;DHT22;7554;43.600;1.480;2023-02-08T06:44:27;2.10;1.00
14924;DHT22;7554;43.600;1.480;2023-02-08T06:46:54;2.10;1.00
14924;DHT22;7554;43.600;1.480;2023-02-08T06:49:22;2.00;1.00
14924;DHT22;7554;43.600;1.480;2023-02-08T06:51:49;2.20;1.00
14924;DHT22;7554;43.600;1.480;2023-02-08T06:54:17;2.20;1.00
14924;DHT22;7554;43.600;1.480;2023-02-08T06:56:44;2.20;1.00
14924;DHT22;7554;43.600;1.480;2023-02-08T06:59:14;2.20;1.00
14924;DHT22;7554;43.600;1.480;2023-02-08T07:01:41;2.20;1.00
14924;DHT22;7554;43.600;1.480;2023-02-08T07:04:08;2.20;1.00
14924;DHT22;7554;43.600;1.480;2023-02-08T07:06:36;2.20;1.00
14924;DHT22;7554;43.600;1.480;2023-02-08T07:09:03;2.20;1.00
14924;DHT22;7554;43.600;1.480;2023-02-08T07:11:31;2.30;1.00
14924;DHT22;7554;43.600;1.480;2023-02-08T07:13:59;2.60;1.00
14924;DHT22;7554;43.600;1.480;2023-02-08T07:16:28;2.40;1.00
14924;DHT22;7554;43.600;1.480;2023-02-08T07:18:55;2.30;1.00
14924;DHT22;7554;43.600;1.480;2023-02-08T07:21:22;2.30;1.00
14924;DHT22;7554;43.600;1.480;2023-02-08T07:23:50;2.40;1.00
14924;DHT22;7554;43.600;1.480;2023-02-08T07:26:17;3.40;1.00
14924;DHT22;7554;43.600;1.480;2023-02-08T07:28:45;4.00;1.00
14924;DHT22;7554;43.600;1.480;2023-02-08T07:31:14;5.50;1.00
14924;DHT22;7554;43.600;1.480;2023-02-08T07:33:44;7.00;1.00
14924;DHT22;7554;43.600;1.480;2023-02-08T07:36:11;8.10;1.00
14924;DHT22;7554;43.600;1.480;2023-02-08T07:38:39;8.10;1.00
14924;DHT22;7554;43.600;1.480;2023-02-08T07:41:09;8.90;1.00
14924;DHT22;7554;43.600;1.480;2023-02-08T07:43:37;9.60;1.00
14924;DHT22;7554;43.600;1.480;2023-02-08T07:46:06;10.20;1.00
14924;DHT22;7554;43.600;1.480;2023-02-08T07:48:33;10.40;1.00
14924;DHT22;7554;43.600;1.480;2023-02-08T07:51:03;10.40;1.00
14924;DHT22;7554;43.600;1.480;2023-02-08T07:53:31;11.30;1.00
14924;DHT22;7554;43.600;1.480;2023-02-08T07:55:59;11.80;1.00
14924;DHT22;7554;43.600;1.480;2023-02-08T07:58:26;11.90;1.00
14924;DHT22;7554;43.600;1.480;2023-02-08T08:00:54;12.30;1.00
14924;DHT22;7554;43.600;1.480;2023-02-08T08:03:21;12.40;1.00
14924;DHT22;7554;43.600;1.480;2023-02-08T08:05:49;12.10;1.00
14924;DHT22;7554;43.600;1.480;2023-02-08T08:08:19;12.10;1.00
14924;DHT22;7554;43.600;1.480;2023-02-08T08:10:46;11.90;1.00
14924;DHT22;7554;43.600;1.480;2023-02-08T08:13:14;11.80;1.00
14924;DHT22;7554;43.600;1.480;2023-02-08T08:15:41;11.20;1.00
14924;DHT22;7554;43.600;1.480;2023-02-08T08:18:09;9.50;1.00
14924;DHT22;7554;43.600;1.480;2023-02-08T08:20:36;8.20;1.00
14924;DHT22;7554;43.600;1.480;2023-02-08T08:23:04;7.40;1.00
14924;DHT22;7554;43.600;1.480;2023-02-08T08:25:33;6.80;1.00
14924;DHT22;7554;43.600;1.480;2023-02-08T08:28:00;7.00;1.00
14924;DHT22;7554;43.600;1.480;2023-02-08T08:30:28;7.20;1.00
14924;DHT22;7554;43.600;1.480;2023-02-08T08:32:55;6.80;1.00
14924;DHT22;7554;43.600;1.480;2023-02-08T08:35:23;6.70;1.00
14924;DHT22;7554;43.600;1.480;2023-02-08T08:37:50;6.70;1.00
14924;DHT22;7554;43.600;1.480;2023-02-08T08:40:18;6.60;1.00
14924;DHT22;7554;43.600;1.480;2023-02-08T08:42:47;6.80;1.00
14924;DHT22;7554;43.600;1.480;2023-02-08T08:45:15;6.90;1.00
14924;DHT22;7554;43.600;1.480;2023-02-08T08:47:42;6.80;1.00
14924;DHT22;7554;43.600;1.480;2023-02-08T08:50:09;6.90;1.00
14924;DHT22;7554;43.600;1.480;2023-02-08T08:52:37;6.90;1.00
14924;DHT22;7554;43.600;1.480;2023-02-08T08:55:05;6.50;1.00
14924;DHT22;7554;43.600;1.480;2023-02-08T08:57:33;6.60;1.00
14924;DHT22;7554;43.600;1.480;2023-02-08T09:00:03;6.50;1.00
14924;DHT22;7554;43.600;1.480;2023-02-08T09:02:30;6.70;1.00
14924;DHT22;7554;43.600;1.480;2023-02-08T09:04:58;7.00;1.00
14924;DHT22;7554;43.600;1.480;2023-02-08T09:07:27;6.80;1.00
14924;DHT22;7554;43.600;1.480;2023-02-08T09:09:54;6.80;1.00
14924;DHT22;7554;43.600;1.480;2023-02-08T09:12:22;6.60;1.00
14924;DHT22;7554;43.600;1.480;2023-02-08T09:14:49;6.80;1.00
14924;DHT22;7554;43.600;1.480;2023-02-08T09:17:18;6.90;1.00
14924;DHT22;7554;43.600;1.480;2023-02-08T09:19:47;7.30;1.00
14924;DHT22;7554;43.600;1.480;2023-02-08T09:22:15;7.10;1.00
14924;DHT22;7554;43.600;1.480;2023-02-08T09:24:43;7.00;1.00
14924;DHT22;7554;43.600;1.480;2023-02-08T09:27:10;7.10;1.00
14924;DHT22;7554;43.600;1.480;2023-02-08T09:29:39;6.80;1.00
14924;DHT22;7554;43.600;1.480;2023-02-08T09:32:06;6.60;1.00
14924;DHT22;7554;43.600;1.480;2023-02-08T09:34:35;6.90;1.00
14924;DHT22;7554;43.600;1.480;2023-02-08T09:37:03;7.00;1.00
14924;DHT22;7554;43.600;1.480;2023-02-08T09:39:31;6.90;1.00
14924;DHT22;7554;43.600;1.480;2023-02-08T09:42:15;7.10;1.00
14924;DHT22;7554;43.600;1.480;2023-02-08T09:44:54;7.10;1.00
14924;DHT22;7554;43.600;1.480;2023-02-08T09:47:30;6.90;1.00
14924;DHT22;7554;43.600;1.480;2023-02-08T09:50:03;6.90;1.00
14924;DHT22;7554;43.600;1.480;2023-02-08T09:52:36;7.00;1.00
14924;DHT22;7554;43.600;1.480;2023-02-08T09:55:16;6.90;1.00
14924;DHT22;7554;43.600;1.480;2023-02-08T09:57:46;6.90;1.00
14924;DHT22;7554;43.600;1.480;2023-02-08T10:00:17;7.00;1.00
14924;DHT22;7554;43.600;1.480;2023-02-08T10:02:48;7.20;1.00
14924;DHT22;7554;43.600;1.480;2023-02-08T10:05:28;7.20;1.00
14924;DHT22;7554;43.600;1.480;2023-02-08T10:07:56;7.50;1.00
14924;DHT22;7554;43.600;1.480;2023-02-08T10:10:40;7.10;1.00
14924;DHT22;7554;43.600;1.480;2023-02-08T10:13:19;6.80;1.00
14924;DHT22;7554;43.600;1.480;2023-02-08T10:15:52;6.90;1.00
14924;DHT22;7554;43.600;1.480;2023-02-08T10:18:35;7.10;1.00
14924;DHT22;7554;43.600;1.480;2023-02-08T10:21:28;7.20;1.00
14924;DHT22;7554;43.600;1.480;2023-02-08T10:24:19;7.10;1.00
14924;DHT22;7554;43.600;1.480;2023-02-08T10:26:58;7.10;1.00
14924;DHT22;7554;43.600;1.480;2023-02-08T10:32:44;7.40;1.00
14924;DHT22;7554;43.600;1.480;2023-02-08T10:35:14;7.50;1.00
14924;DHT22;7554;43.600;1.480;2023-02-08T10:37:45;7.40;1.00
14924;DHT22;7554;43.600;1.480;2023-02-08T10:40:20;7.20;1.00
14924;DHT22;7554;43.600;1.480;2023-02-08T10:42:54;7.30;1.00
14924;DHT22;7554;43.600;1.480;2023-02-08T10:45:26;7.30;1.00
14924;DHT22;7554;43.600;1.480;2023-02-08T10:47:57;7.30;1.00
14924;DHT22;7554;43.600;1.480;2023-02-08T10:50:31;7.30;1.00
14924;DHT22;7554;43.600;1.480;2023-02-08T10:53:02;7.50;1.00
14924;DHT22;7554;43.600;1.480;2023-02-08T10:55:30;7.60;1.00
14924;DHT22;7554;43.600;1.480;2023-02-08T10:57:59;7.50;1.00
14924;DHT22;7554;43.600;1.480;2023-02-08T11:00:30;7.40;1.00
14924;DHT22;7554;43.600;1.480;2023-02-08T11:03:01;7.70;1.00
14924;DHT22;7554;43.600;1.480;2023-02-08T11:05:33;7.70;1.00
14924;DHT22;7554;43.600;1.480;2023-02-08T11:08:07;7.80;1.00
14924;DHT22;7554;43.600;1.480;2023-02-08T11:10:36;7.60;1.00
14924;DHT22;7554;43.600;1.480;2023-02-08T11:13:09;7.70;1.00
14924;DHT22;7554;43.600;1.480;2023-02-08T11:15:45;7.80;1.00
14924;DHT22;7554;43.600;1.480;2023-02-08T11:18:18;7.90;1.00
14924;DHT22;7554;43.600;1.480;2023-02-08T11:20:48;7.90;1.00
14924;DHT22;7554;43.600;1.480;2023-02-08T11:23:23;7.90;1.00
14924;DHT22;7554;43.600;1.480;2023-02-08T11:25:52;7.90;1.00
14924;DHT22;7554;43.600;1.480;2023-02-08T11:28:25;8.00;1.00
14924;DHT22;7554;43.600;1.480;2023-02-08T11:30:58;8.10;1.00
14924;DHT22;7554;43.600;1.480;2023-02-08T11:33:27;8.00;1.00
14924;DHT22;7554;43.600;1.480;2023-02-08T11:36:06;8.10;1.00
14924;DHT22;7554;43.600;1.480;2023-02-08T11:38:40;8.30;1.00
14924;DHT22;7554;43.600;1.480;2023-02-08T11:41:15;8.40;1.00
14924;DHT22;7554;43.600;1.480;2023-02-08T11:43:54;8.50;1.00
14924;DHT22;7554;43.600;1.480;2023-02-08T11:46:24;8.50;1.00
14924;DHT22;7554;43.600;1.480;2023-02-08T11:48:52;8.50;1.00
14924;DHT22;7554;43.600;1.480;2023-02-08T11:51:26;8.50;1.00
14924;DHT22;7554;43.600;1.480;2023-02-08T11:53:56;8.50;1.00
14924;DHT22;7554;43.600;1.480;2023-02-08T11:56:26;8.60;1.00
14924;DHT22;7554;43.600;1.480;2023-02-08T11:59:00;8.70;1.00
14924;DHT22;7554;43.600;1.480;2023-02-08T12:01:30;8.70;1.00
14924;DHT22;7554;43.600;1.480;2023-02-08T12:04:00;8.50;1.00
14924;DHT22;7554;43.600;1.480;2023-02-08T12:06:53;8.60;1.00
14924;DHT22;7554;43.600;1.480;2023-02-08T12:09:41;8.70;1.00
14924;DHT22;7554;43.600;1.480;2023-02-08T12:12:22;8.80;1.00
14924;DHT22;7554;43.600;1.480;2023-02-08T12:14:59;9.00;1.00
14924;DHT22;7554;43.600;1.480;2023-02-08T12:17:51;9.10;1.00
14924;DHT22;7554;43.600;1.480;2023-02-08T12:20:38;9.50;1.00
14924;DHT22;7554;43.600;1.480;2023-02-08T12:26:18;9.40;1.00
14924;DHT22;7554;43.600;1.480;2023-02-08T12:28:56;9.50;1.00
14924;DHT22;7554;43.600;1.480;2023-02-08T12:31:35;9.80;1.00
14924;DHT22;7554;43.600;1.480;2023-02-08T12:34:12;9.80;1.00
14924;DHT22;7554;43.600;1.480;2023-02-08T12:36:58;10.10;1.00
14924;DHT22;7554;43.600;1.480;2023-02-08T12:39:56;10.10;1.00
14924;DHT22;7554;43.600;1.480;2023-02-08T12:42:56;10.10;1.00
14924;DHT22;7554;43.600;1.480;2023-02-08T12:45:55;10.40;1.00
14924;DHT22;7554;43.600;1.480;2023-02-08T12:48:36;10.20;1.00
14924;DHT22;7554;43.600;1.480;2023-02-08T12:51:13;10.20;1.00
14924;DHT22;7554;43.600;1.480;2023-02-08T12:53:47;9.80;1.00
14924;DHT22;7554;43.600;1.480;2023-02-08T12:56:19;9.80;1.00
14924;DHT22;7554;43.600;1.480;2023-02-08T12:58:51;9.80;1.00
14924;DHT22;7554;43.600;1.480;2023-02-08T13:01:23;9.70;1.00
14924;DHT22;7554;43.600;1.480;2023-02-08T13:03:55;9.90;1.00
14924;DHT22;7554;43.600;1.480;2023-02-08T13:06:26;10.00;1.00
14924;DHT22;7554;43.600;1.480;2023-02-08T13:08:59;9.90;1.00
14924;DHT22;7554;43.600;1.480;2023-02-08T13:11:33;9.90;1.00
14924;DHT22;7554;43.600;1.480;2023-02-08T13:14:10;9.80;1.00
14924;DHT22;7554;43.600;1.480;2023-02-08T13:16:41;9.90;1.00
14924;DHT22;7554;43.600;1.480;2023-02-08T13:19:24;9.90;1.00
14924;DHT22;7554;43.600;1.480;2023-02-08T13:21:53;9.80;1.00
14924;DHT22;7554;43.600;1.480;2023-02-08T13:24:34;9.70;1.00
14924;DHT22;7554;43.600;1.480;2023-02-08T13:27:03;9.50;1.00
14924;DHT22;7554;43.600;1.480;2023-02-08T13:29:35;9.50;1.00
14924;DHT22;7554;43.600;1.480;2023-02-08T13:32:05;9.40;1.00
14924;DHT22;7554;43.600;1.480;2023-02-08T13:34:39;9.50;1.00
14924;DHT22;7554;43.600;1.480;2023-02-08T13:37:18;9.40;1.00
14924;DHT22;7554;43.600;1.480;2023-02-08T13:39:47;9.30;1.00
14924;DHT22;7554;43.600;1.480;2023-02-08T13:42:20;9.30;1.00
14924;DHT22;7554;43.600;1.480;2023-02-08T13:44:52;9.30;1.00
14924;DHT22;7554;43.600;1.480;2023-02-08T13:47:24;9.30;1.00
14924;DHT22;7554;43.600;1.480;2023-02-08T13:49:55;9.40;1.00
14924;DHT22;7554;43.600;1.480;2023-02-08T13:52:53;9.50;1.00
14924;DHT22;7554;43.600;1.480;2023-02-08T13:55:56;9.40;1.00
14924;DHT22;7554;43.600;1.480;2023-02-08T14:01:31;9.50;1.00
14924;DHT22;7554;43.600;1.480;2023-02-08T14:04:22;9.40;1.00
14924;DHT22;7554;43.600;1.480;2023-02-08T14:06:56;9.50;1.00
14924;DHT22;7554;43.600;1.480;2023-02-08T14:09:32;9.50;1.00
14924;DHT22;7554;43.600;1.480;2023-02-08T14:12:10;9.60;1.00
14924;DHT22;7554;43.600;1.480;2023-02-08T14:14:40;9.60;1.00
14924;DHT22;7554;43.600;1.480;2023-02-08T14:17:16;9.50;1.00
14924;DHT22;7554;43.600;1.480;2023-02-08T14:19:55;9.50;1.00
14924;DHT22;7554;43.600;1.480;2023-02-08T14:22:23;9.50;1.00
14924;DHT22;7554;43.600;1.480;2023-02-08T14:25:00;9.50;1.00
14924;DHT22;7554;43.600;1.480;2023-02-08T14:27:32;9.50;1.00
14924;DHT22;7554;43.600;1.480;2023-02-08T14:30:05;9.60;1.00
14924;DHT22;7554;43.600;1.480;2023-02-08T14:32:36;9.50;1.00
14924;DHT22;7554;43.600;1.480;2023-02-08T14:35:07;9.50;1.00
14924;DHT22;7554;43.600;1.480;2023-02-08T14:37:36;9.40;1.00
14924;DHT22;7554;43.600;1.480;2023-02-08T14:43:32;9.40;1.00
14924;DHT22;7554;43.600;1.480;2023-02-08T14:49:02;9.40;1.00
14924;DHT22;7554;43.600;1.480;2023-02-08T14:51:32;9.40;1.00
14924;DHT22;7554;43.600;1.480;2023-02-08T14:54:14;9.50;1.00
14924;DHT22;7554;43.600;1.480;2023-02-08T14:56:50;9.40;1.00
14924;DHT22;7554;43.600;1.480;2023-02-08T14:59:25;9.40;1.00
14924;DHT22;7554;43.600;1.480;2023-02-08T15:01:55;9.40;1.00
14924;DHT22;7554;43.600;1.480;2023-02-08T15:04:25;9.40;1.00
14924;DHT22;7554;43.600;1.480;2023-02-08T15:07:19;9.40;1.00
14924;DHT22;7554;43.600;1.480;2023-02-08T15:09:48;9.30;1.00
14924;DHT22;7554;43.600;1.480;2023-02-08T15:12:23;9.30;1.00
14924;DHT22;7554;43.600;1.480;2023-02-08T15:14:53;9.30;1.00
14924;DHT22;7554;43.600;1.480;2023-02-08T15:17:32;9.30;1.00
14924;DHT22;7554;43.600;1.480;2023-02-08T15:20:03;9.20;1.00
14924;DHT22;7554;43.600;1.480;2023-02-08T15:22:34;9.30;1.00
14924;DHT22;7554;43.600;1.480;2023-02-08T15:25:20;9.40;1.00
14924;DHT22;7554;43.600;1.480;2023-02-08T15:27:50;9.50;1.00
14924;DHT22;7554;43.600;1.480;2023-02-08T15:30:23;9.60;1.00
14924;DHT22;7554;43.600;1.480;2023-02-08T15:32:51;9.50;1.00
14924;DHT22;7554;43.600;1.480;2023-02-08T15:35:22;9.60;1.00
14924;DHT22;7554;43.600;1.480;2023-02-08T15:37:51;9.60;1.00
14924;DHT22;7554;43.600;1.480;2023-02-08T15:40:26;9.50;1.00
14924;DHT22;7554;43.600;1.480;2023-02-08T15:42:55;9.30;1.00
14924;DHT22;7554;43.600;1.480;2023-02-08T15:45:28;9.30;1.00
14924;DHT22;7554;43.600;1.480;2023-02-08T15:47:56;9.20;1.00
14924;DHT22;7554;43.600;1.480;2023-02-08T15:50:28;9.20;1.00
14924;DHT22;7554;43.600;1.480;2023-02-08T15:53:00;9.20;1.00
14924;DHT22;7554;43.600;1.480;2023-02-08T15:55:30;9.20;1.00
14924;DHT22;7554;43.600;1.480;2023-02-08T15:58:03;9.00;1.00
14924;DHT22;7554;43.600;1.480;2023-02-08T16:00:35;9.00;1.00
14924;DHT22;7554;43.600;1.480;2023-02-08T16:03:05;9.00;1.00
14924;DHT22;7554;43.600;1.480;2023-02-08T16:05:35;9.00;1.00
14924;DHT22;7554;43.600;1.480;2023-02-08T16:08:04;8.90;1.00
14924;DHT22;7554;43.600;1.480;2023-02-08T16:10:34;8.90;1.00
14924;DHT22;7554;43.600;1.480;2023-02-08T16:13:12;8.80;1.00
14924;DHT22;7554;43.600;1.480;2023-02-08T16:15:43;8.80;1.00
14924;DHT22;7554;43.600;1.480;2023-02-08T16:18:33;8.70;1.00
14924;DHT22;7554;43.600;1.480;2023-02-08T16:21:15;8.70;1.00
14924;DHT22;7554;43.600;1.480;2023-02-08T16:23:49;8.60;1.00
14924;DHT22;7554;43.600;1.480;2023-02-08T16:26:19;8.50;1.00
14924;DHT22;7554;43.600;1.480;2023-02-08T16:28:55;8.50;1.00
14924;DHT22;7554;43.600;1.480;2023-02-08T16:31:24;8.40;1.00
14924;DHT22;7554;43.600;1.480;2023-02-08T16:33:58;8.40;1.00
14924;DHT22;7554;43.600;1.480;2023-02-08T16:36:32;8.30;1.00
14924;DHT22;7554;43.600;1.480;2023-02-08T16:39:22;8.30;1.00
14924;DHT22;7554;43.600;1.480;2023-02-08T16:42:01;8.20;1.00
14924;DHT22;7554;43.600;1.480;2023-02-08T16:44:31;8.20;1.00
14924;DHT22;7554;43.600;1.480;2023-02-08T16:46:59;8.20;1.00
14924;DHT22;7554;43.600;1.480;2023-02-08T16:49:27;8.00;1.00
14924;DHT22;7554;43.600;1.480;2023-02-08T16:51:57;8.00;1.00
14924;DHT22;7554;43.600;1.480;2023-02-08T16:54:25;7.90;1.00
14924;DHT22;7554;43.600;1.480;2023-02-08T16:56:56;7.90;1.00
14924;DHT22;7554;43.600;1.480;2023-02-08T16:59:26;7.80;1.00
14924;DHT22;7554;43.600;1.480;2023-02-08T17:01:54;7.80;1.00
14924;DHT22;7554;43.600;1.480;2023-02-08T17:04:22;7.70;1.00
14924;DHT22;7554;43.600;1.480;2023-02-08T17:06:50;7.60;1.00
14924;DHT22;7554;43.600;1.480;2023-02-08T17:09:22;7.50;1.00
14924;DHT22;7554;43.600;1.480;2023-02-08T17:11:49;7.50;1.00
14924;DHT22;7554;43.600;1.480;2023-02-08T17:14:18;7.40;1.00
14924;DHT22;7554;43.600;1.480;2023-02-08T17:16:45;7.40;1.00
14924;DHT22;7554;43.600;1.480;2023-02-08T17:19:15;7.30;1.00
14924;DHT22;7554;43.600;1.480;2023-02-08T17:21:44;7.30;1.00
14924;DHT22;7554;43.600;1.480;2023-02-08T17:24:12;7.30;1.00
14924;DHT22;7554;43.600;1.480;2023-02-08T17:26:42;7.20;1.00
14924;DHT22;7554;43.600;1.480;2023-02-08T17:29:10;7.10;1.00
14924;DHT22;7554;43.600;1.480;2023-02-08T17:31:38;7.10;1.00